sensor_id;sensor_type;location;lat;lon;timestamp;P1;durP1;ratioP1;P2;durP2;ratioP2
6386;SDS011;3226;42.162;24.756;2023-06-22T00:00:27;6.00;;;5.80;;
6386;SDS011;3226;42.162;24.756;2023-06-22T00:02:57;6.17;;;5.97;;
6386;SDS011;3226;42.162;24.756;2023-06-22T00:05:25;6.17;;;5.93;;
6386;SDS011;3226;42.162;24.756;2023-06-22T00:07:53;7.13;;;6.83;;
6386;SDS011;3226;42.162;24.756;2023-06-22T00:10:21;6.93;;;6.63;;
6386;SDS011;3226;42.162;24.756;2023-06-22T00:12:49;6.97;;;6.67;;
6386;SDS011;3226;42.162;24.756;2023-06-22T00:15:17;6.43;;;6.13;;
6386;SDS011;3226;42.162;24.756;2023-06-22T00:17:45;7.33;;;7.03;;
6386;SDS011;3226;42.162;24.756;2023-06-22T00:20:15;7.00;;;6.70;;
6386;SDS011;3226;42.162;24.756;2023-06-22T00:22:44;7.07;;;6.77;;
6386;SDS011;3226;42.162;24.756;2023-06-22T00:25:14;6.80;;;6.50;;
6386;SDS011;3226;42.162;24.756;2023-06-22T00:27:42;7.00;;;6.70;;
6386;SDS011;3226;42.162;24.756;2023-06-22T00:30:10;6.87;;;6.57;;
6386;SDS011;3226;42.162;24.756;2023-06-22T00:32:39;8.07;;;7.77;;
6386;SDS011;3226;42.162;24.756;2023-06-22T00:35:07;6.57;;;6.27;;
6386;SDS011;3226;42.162;24.756;2023-06-22T00:37:37;6.33;;;6.07;;
6386;SDS011;3226;42.162;24.756;2023-06-22T00:40:08;6.63;;;6.33;;
6386;SDS011;3226;42.162;24.756;2023-06-22T00:42:38;7.87;;;7.57;;
6386;SDS011;3226;42.162;24.756;2023-06-22T00:45:06;7.73;;;7.43;;
6386;SDS011;3226;42.162;24.756;2023-06-22T00:47:35;8.10;;;7.80;;
6386;SDS011;3226;42.162;24.756;2023-06-22T00:50:04;8.83;;;8.43;;
6386;SDS011;3226;42.162;24.756;2023-06-22T00:52:34;9.40;;;9.00;;
6386;SDS011;3226;42.162;24.756;2023-06-22T00:55:04;10.20;;;9.80;;
6386;SDS011;3226;42.162;24.756;2023-06-22T00:57:33;13.80;;;13.20;;
6386;SDS011;3226;42.162;24.756;2023-06-22T01:00:04;17.13;;;16.33;;
6386;SDS011;3226;42.162;24.756;2023-06-22T01:02:46;15.03;;;14.33;;
6386;SDS011;3226;42.162;24.756;2023-06-22T01:05:18;8.80;;;8.40;;
6386;SDS011;3226;42.162;24.756;2023-06-22T01:07:52;7.90;;;7.60;;
6386;SDS011;3226;42.162;24.756;2023-06-22T01:10:32;6.83;;;6.53;;
6386;SDS011;3226;42.162;24.756;2023-06-22T01:13:09;7.20;;;6.90;;
6386;SDS011;3226;42.162;24.756;2023-06-22T01:15:44;7.53;;;7.23;;
6386;SDS011;3226;42.162;24.756;2023-06-22T01:18:17;6.93;;;6.63;;
6386;SDS011;3226;42.162;24.756;2023-06-22T01:20:47;7.10;;;6.80;;
6386;SDS011;3226;42.162;24.756;2023-06-22T01:23:18;6.43;;;6.13;;
6386;SDS011;3226;42.162;24.756;2023-06-22T01:25:59;6.57;;;6.27;;
6386;SDS011;3226;42.162;24.756;2023-06-22T01:28:43;5.83;;;5.63;;
6386;SDS011;3226;42.162;24.756;2023-06-22T01:31:15;7.03;;;6.73;;
6386;SDS011;3226;42.162;24.756;2023-06-22T01:33:45;7.73;;;7.43;;
6386;SDS011;3226;42.162;24.756;2023-06-22T01:36:20;6.90;;;6.60;;
6386;SDS011;3226;42.162;24.756;2023-06-22T01:38:49;6.47;;;6.17;;
6386;SDS011;3226;42.162;24.756;2023-06-22T01:41:19;6.73;;;6.43;;
6386;SDS011;3226;42.162;24.756;2023-06-22T01:43:49;5.90;;;5.70;;
6386;SDS011;3226;42.162;24.756;2023-06-22T01:46:18;6.50;;;6.20;;
6386;SDS011;3226;42.162;24.756;2023-06-22T01:48:48;6.47;;;6.17;;
6386;SDS011;3226;42.162;24.756;2023-06-22T01:51:17;7.37;;;7.07;;
6386;SDS011;3226;42.162;24.756;2023-06-22T01:53:45;6.93;;;6.63;;
6386;SDS011;3226;42.162;24.756;2023-06-22T01:56:15;6.57;;;6.27;;
6386;SDS011;3226;42.162;24.756;2023-06-22T01:58:47;6.90;;;6.60;;
6386;SDS011;3226;42.162;24.756;2023-06-22T02:01:20;7.03;;;6.73;;
6386;SDS011;3226;42.162;24.756;2023-06-22T02:04:01;7.27;;;6.97;;
6386;SDS011;3226;42.162;24.756;2023-06-22T02:06:36;7.27;;;6.97;;
6386;SDS011;3226;42.162;24.756;2023-06-22T02:09:07;7.13;;;6.83;;
6386;SDS011;3226;42.162;24.756;2023-06-22T02:11:38;6.77;;;6.47;;
6386;SDS011;3226;42.162;24.756;2023-06-22T02:14:10;7.73;;;7.43;;
6386;SDS011;3226;42.162;24.756;2023-06-22T02:16:39;8.37;;;8.03;;
6386;SDS011;3226;42.162;24.756;2023-06-22T02:19:09;7.57;;;7.27;;
6386;SDS011;3226;42.162;24.756;2023-06-22T02:21:37;8.60;;;8.20;;
6386;SDS011;3226;42.162;24.756;2023-06-22T02:24:05;8.30;;;8.00;;
6386;SDS011;3226;42.162;24.756;2023-06-22T02:26:33;6.37;;;6.13;;
6386;SDS011;3226;42.162;24.756;2023-06-22T02:29:01;7.70;;;7.40;;
6386;SDS011;3226;42.162;24.756;2023-06-22T02:31:31;6.67;;;6.37;;
6386;SDS011;3226;42.162;24.756;2023-06-22T02:33:59;8.23;;;7.90;;
6386;SDS011;3226;42.162;24.756;2023-06-22T02:36:27;8.90;;;8.50;;
6386;SDS011;3226;42.162;24.756;2023-06-22T02:38:57;8.77;;;8.37;;
6386;SDS011;3226;42.162;24.756;2023-06-22T02:41:27;8.43;;;8.07;;
6386;SDS011;3226;42.162;24.756;2023-06-22T02:43:56;8.27;;;7.97;;
6386;SDS011;3226;42.162;24.756;2023-06-22T02:46:23;7.13;;;6.83;;
6386;SDS011;3226;42.162;24.756;2023-06-22T02:48:53;7.70;;;7.40;;
6386;SDS011;3226;42.162;24.756;2023-06-22T02:51:21;6.73;;;6.43;;
6386;SDS011;3226;42.162;24.756;2023-06-22T02:53:49;7.30;;;7.00;;
6386;SDS011;3226;42.162;24.756;2023-06-22T02:56:24;7.17;;;6.87;;
6386;SDS011;3226;42.162;24.756;2023-06-22T02:58:52;7.67;;;7.37;;
6386;SDS011;3226;42.162;24.756;2023-06-22T03:01:20;6.37;;;6.13;;
6386;SDS011;3226;42.162;24.756;2023-06-22T03:03:50;7.10;;;6.80;;
6386;SDS011;3226;42.162;24.756;2023-06-22T03:06:19;6.60;;;6.30;;
6386;SDS011;3226;42.162;24.756;2023-06-22T03:08:50;6.63;;;6.33;;
6386;SDS011;3226;42.162;24.756;2023-06-22T03:11:18;7.10;;;6.80;;
6386;SDS011;3226;42.162;24.756;2023-06-22T03:13:46;5.60;;;5.40;;
6386;SDS011;3226;42.162;24.756;2023-06-22T03:16:14;6.93;;;6.63;;
6386;SDS011;3226;42.162;24.756;2023-06-22T03:18:42;6.70;;;6.40;;
6386;SDS011;3226;42.162;24.756;2023-06-22T03:21:10;7.00;;;6.70;;
6386;SDS011;3226;42.162;24.756;2023-06-22T03:23:40;7.03;;;6.73;;
6386;SDS011;3226;42.162;24.756;2023-06-22T03:26:08;6.90;;;6.60;;
6386;SDS011;3226;42.162;24.756;2023-06-22T03:28:36;6.83;;;6.53;;
6386;SDS011;3226;42.162;24.756;2023-06-22T03:31:05;6.93;;;6.63;;
6386;SDS011;3226;42.162;24.756;2023-06-22T03:33:34;7.40;;;7.10;;
6386;SDS011;3226;42.162;24.756;2023-06-22T03:36:02;7.63;;;7.33;;
6386;SDS011;3226;42.162;24.756;2023-06-22T03:38:30;7.60;;;7.30;;
6386;SDS011;3226;42.162;24.756;2023-06-22T03:40:59;6.23;;;6.00;;
6386;SDS011;3226;42.162;24.756;2023-06-22T03:43:27;6.60;;;6.30;;
6386;SDS011;3226;42.162;24.756;2023-06-22T03:45:55;7.27;;;6.97;;
6386;SDS011;3226;42.162;24.756;2023-06-22T03:48:23;7.03;;;6.73;;
6386;SDS011;3226;42.162;24.756;2023-06-22T03:50:51;7.37;;;7.07;;
6386;SDS011;3226;42.162;24.756;2023-06-22T03:53:19;7.83;;;7.53;;
6386;SDS011;3226;42.162;24.756;2023-06-22T03:55:47;7.40;;;7.10;;
6386;SDS011;3226;42.162;24.756;2023-06-22T03:58:18;7.70;;;7.40;;
6386;SDS011;3226;42.162;24.756;2023-06-22T04:00:47;7.20;;;6.90;;
6386;SDS011;3226;42.162;24.756;2023-06-22T04:03:16;7.80;;;7.50;;
6386;SDS011;3226;42.162;24.756;2023-06-22T04:05:45;7.10;;;6.80;;
6386;SDS011;3226;42.162;24.756;2023-06-22T04:08:14;7.17;;;6.87;;
6386;SDS011;3226;42.162;24.756;2023-06-22T04:10:42;6.70;;;6.40;;
6386;SDS011;3226;42.162;24.756;2023-06-22T04:13:10;6.90;;;6.60;;
6386;SDS011;3226;42.162;24.756;2023-06-22T04:15:39;7.23;;;6.93;;
6386;SDS011;3226;42.162;24.756;2023-06-22T04:18:08;6.40;;;6.10;;
6386;SDS011;3226;42.162;24.756;2023-06-22T04:20:36;7.63;;;7.23;;
6386;SDS011;3226;42.162;24.756;2023-06-22T04:23:04;6.87;;;6.57;;
6386;SDS011;3226;42.162;24.756;2023-06-22T04:25:32;6.97;;;6.67;;
6386;SDS011;3226;42.162;24.756;2023-06-22T04:28:01;7.47;;;7.17;;
6386;SDS011;3226;42.162;24.756;2023-06-22T04:30:32;7.97;;;7.67;;
6386;SDS011;3226;42.162;24.756;2023-06-22T04:33:02;9.83;;;9.37;;
6386;SDS011;3226;42.162;24.756;2023-06-22T04:35:30;7.20;;;6.90;;
6386;SDS011;3226;42.162;24.756;2023-06-22T04:37:58;7.73;;;7.43;;
6386;SDS011;3226;42.162;24.756;2023-06-22T04:40:26;6.67;;;6.37;;
6386;SDS011;3226;42.162;24.756;2023-06-22T04:42:54;7.60;;;7.30;;
6386;SDS011;3226;42.162;24.756;2023-06-22T04:45:22;6.13;;;5.93;;
6386;SDS011;3226;42.162;24.756;2023-06-22T04:47:50;6.53;;;6.23;;
6386;SDS011;3226;42.162;24.756;2023-06-22T04:50:20;7.77;;;7.47;;
6386;SDS011;3226;42.162;24.756;2023-06-22T04:52:50;7.33;;;7.03;;
6386;SDS011;3226;42.162;24.756;2023-06-22T04:55:19;7.23;;;6.83;;
6386;SDS011;3226;42.162;24.756;2023-06-22T04:57:47;6.60;;;6.30;;
6386;SDS011;3226;42.162;24.756;2023-06-22T05:00:16;7.07;;;6.77;;
6386;SDS011;3226;42.162;24.756;2023-06-22T05:02:46;7.23;;;6.93;;
6386;SDS011;3226;42.162;24.756;2023-06-22T05:05:14;6.80;;;6.50;;
6386;SDS011;3226;42.162;24.756;2023-06-22T05:07:44;6.47;;;6.17;;
6386;SDS011;3226;42.162;24.756;2023-06-22T05:10:14;6.77;;;6.47;;
6386;SDS011;3226;42.162;24.756;2023-06-22T05:12:42;7.20;;;6.90;;
6386;SDS011;3226;42.162;24.756;2023-06-22T05:15:10;7.47;;;7.17;;
6386;SDS011;3226;42.162;24.756;2023-06-22T05:17:39;5.77;;;5.57;;
6386;SDS011;3226;42.162;24.756;2023-06-22T05:20:10;7.10;;;6.80;;
6386;SDS011;3226;42.162;24.756;2023-06-22T05:22:38;7.17;;;6.87;;
6386;SDS011;3226;42.162;24.756;2023-06-22T05:25:09;7.03;;;6.73;;
6386;SDS011;3226;42.162;24.756;2023-06-22T05:27:38;7.23;;;6.93;;
6386;SDS011;3226;42.162;24.756;2023-06-22T05:30:07;6.73;;;6.43;;
6386;SDS011;3226;42.162;24.756;2023-06-22T05:32:36;7.00;;;6.70;;
6386;SDS011;3226;42.162;24.756;2023-06-22T05:35:04;6.93;;;6.63;;
6386;SDS011;3226;42.162;24.756;2023-06-22T05:37:32;8.27;;;7.87;;
6386;SDS011;3226;42.162;24.756;2023-06-22T05:40:01;7.57;;;7.27;;
6386;SDS011;3226;42.162;24.756;2023-06-22T05:42:31;7.33;;;7.03;;
6386;SDS011;3226;42.162;24.756;2023-06-22T05:44:59;6.80;;;6.50;;
6386;SDS011;3226;42.162;24.756;2023-06-22T05:47:26;6.53;;;6.23;;
6386;SDS011;3226;42.162;24.756;2023-06-22T05:49:55;5.90;;;5.70;;
6386;SDS011;3226;42.162;24.756;2023-06-22T05:52:23;7.00;;;6.70;;
6386;SDS011;3226;42.162;24.756;2023-06-22T05:54:51;6.73;;;6.43;;
6386;SDS011;3226;42.162;24.756;2023-06-22T05:57:19;5.90;;;5.70;;
6386;SDS011;3226;42.162;24.756;2023-06-22T05:59:49;6.10;;;5.90;;
6386;SDS011;3226;42.162;24.756;2023-06-22T06:02:18;5.77;;;5.57;;
6386;SDS011;3226;42.162;24.756;2023-06-22T06:04:46;6.93;;;6.63;;
6386;SDS011;3226;42.162;24.756;2023-06-22T06:07:14;8.90;;;8.50;;
6386;SDS011;3226;42.162;24.756;2023-06-22T06:09:42;8.43;;;8.07;;
6386;SDS011;3226;42.162;24.756;2023-06-22T06:12:10;7.57;;;7.27;;
6386;SDS011;3226;42.162;24.756;2023-06-22T06:14:38;6.43;;;6.17;;
6386;SDS011;3226;42.162;24.756;2023-06-22T06:17:07;6.30;;;6.00;;
6386;SDS011;3226;42.162;24.756;2023-06-22T06:19:35;7.37;;;7.07;;
6386;SDS011;3226;42.162;24.756;2023-06-22T06:22:03;6.87;;;6.57;;
6386;SDS011;3226;42.162;24.756;2023-06-22T06:24:31;6.23;;;6.00;;
6386;SDS011;3226;42.162;24.756;2023-06-22T06:26:59;7.83;;;7.53;;
6386;SDS011;3226;42.162;24.756;2023-06-22T06:29:31;6.67;;;6.37;;
6386;SDS011;3226;42.162;24.756;2023-06-22T06:31:59;7.43;;;7.13;;
6386;SDS011;3226;42.162;24.756;2023-06-22T06:34:28;6.80;;;6.50;;
6386;SDS011;3226;42.162;24.756;2023-06-22T06:36:56;6.97;;;6.67;;
6386;SDS011;3226;42.162;24.756;2023-06-22T06:39:24;7.87;;;7.57;;
6386;SDS011;3226;42.162;24.756;2023-06-22T06:41:52;7.27;;;6.97;;
6386;SDS011;3226;42.162;24.756;2023-06-22T06:44:20;7.47;;;7.17;;
6386;SDS011;3226;42.162;24.756;2023-06-22T06:46:48;7.40;;;7.10;;
6386;SDS011;3226;42.162;24.756;2023-06-22T06:49:16;7.30;;;7.00;;
6386;SDS011;3226;42.162;24.756;2023-06-22T06:51:46;7.70;;;7.40;;
6386;SDS011;3226;42.162;24.756;2023-06-22T06:54:14;7.90;;;7.60;;
6386;SDS011;3226;42.162;24.756;2023-06-22T06:56:41;7.37;;;7.07;;
6386;SDS011;3226;42.162;24.756;2023-06-22T06:59:14;7.93;;;7.63;;
6386;SDS011;3226;42.162;24.756;2023-06-22T07:01:42;7.73;;;7.43;;
6386;SDS011;3226;42.162;24.756;2023-06-22T07:04:11;8.03;;;7.73;;
6386;SDS011;3226;42.162;24.756;2023-06-22T07:06:39;6.50;;;6.20;;
6386;SDS011;3226;42.162;24.756;2023-06-22T07:09:08;7.33;;;7.03;;
6386;SDS011;3226;42.162;24.756;2023-06-22T07:11:36;7.43;;;7.13;;
6386;SDS011;3226;42.162;24.756;2023-06-22T07:14:04;7.50;;;7.20;;
6386;SDS011;3226;42.162;24.756;2023-06-22T07:16:32;7.33;;;7.03;;
6386;SDS011;3226;42.162;24.756;2023-06-22T07:19:00;11.73;;;11.23;;
6386;SDS011;3226;42.162;24.756;2023-06-22T07:21:28;13.23;;;12.63;;
6386;SDS011;3226;42.162;24.756;2023-06-22T07:23:56;8.73;;;8.33;;
6386;SDS011;3226;42.162;24.756;2023-06-22T07:26:25;7.43;;;7.03;;
6386;SDS011;3226;42.162;24.756;2023-06-22T07:28:53;7.60;;;7.30;;
6386;SDS011;3226;42.162;24.756;2023-06-22T07:31:21;8.00;;;7.63;;
6386;SDS011;3226;42.162;24.756;2023-06-22T07:33:49;8.17;;;7.87;;
6386;SDS011;3226;42.162;24.756;2023-06-22T07:36:17;8.73;;;8.33;;
6386;SDS011;3226;42.162;24.756;2023-06-22T07:38:45;8.37;;;8.07;;
6386;SDS011;3226;42.162;24.756;2023-06-22T07:41:13;9.10;;;8.60;;
6386;SDS011;3226;42.162;24.756;2023-06-22T07:43:42;7.57;;;7.17;;
6386;SDS011;3226;42.162;24.756;2023-06-22T07:46:10;7.03;;;6.73;;
6386;SDS011;3226;42.162;24.756;2023-06-22T07:48:38;8.00;;;7.70;;
6386;SDS011;3226;42.162;24.756;2023-06-22T07:51:08;7.73;;;7.43;;
6386;SDS011;3226;42.162;24.756;2023-06-22T07:53:39;9.63;;;9.23;;
6386;SDS011;3226;42.162;24.756;2023-06-22T07:56:08;10.93;;;10.43;;
6386;SDS011;3226;42.162;24.756;2023-06-22T07:58:37;10.20;;;9.80;;
6386;SDS011;3226;42.162;24.756;2023-06-22T08:01:07;8.53;;;8.13;;
6386;SDS011;3226;42.162;24.756;2023-06-22T08:03:36;7.60;;;7.30;;
6386;SDS011;3226;42.162;24.756;2023-06-22T08:06:04;7.27;;;6.97;;
6386;SDS011;3226;42.162;24.756;2023-06-22T08:08:32;7.33;;;7.03;;
6386;SDS011;3226;42.162;24.756;2023-06-22T08:11:00;7.57;;;7.27;;
6386;SDS011;3226;42.162;24.756;2023-06-22T08:13:28;7.60;;;7.30;;
6386;SDS011;3226;42.162;24.756;2023-06-22T08:15:56;8.63;;;8.23;;
6386;SDS011;3226;42.162;24.756;2023-06-22T08:18:25;9.33;;;8.93;;
6386;SDS011;3226;42.162;24.756;2023-06-22T08:20:53;8.73;;;8.33;;
6386;SDS011;3226;42.162;24.756;2023-06-22T08:23:21;10.30;;;9.87;;
6386;SDS011;3226;42.162;24.756;2023-06-22T08:25:49;10.53;;;10.07;;
6386;SDS011;3226;42.162;24.756;2023-06-22T08:28:17;9.63;;;9.23;;
6386;SDS011;3226;42.162;24.756;2023-06-22T08:30:45;8.87;;;8.47;;
6386;SDS011;3226;42.162;24.756;2023-06-22T08:33:13;7.87;;;7.57;;
6386;SDS011;3226;42.162;24.756;2023-06-22T08:35:54;7.53;;;7.23;;
6386;SDS011;3226;42.162;24.756;2023-06-22T08:38:22;8.37;;;7.97;;
6386;SDS011;3226;42.162;24.756;2023-06-22T08:40:50;9.37;;;8.97;;
6386;SDS011;3226;42.162;24.756;2023-06-22T08:43:18;11.13;;;10.63;;
6386;SDS011;3226;42.162;24.756;2023-06-22T08:45:46;8.43;;;8.07;;
6386;SDS011;3226;42.162;24.756;2023-06-22T08:48:14;7.20;;;6.90;;
6386;SDS011;3226;42.162;24.756;2023-06-22T08:50:42;7.77;;;7.47;;
6386;SDS011;3226;42.162;24.756;2023-06-22T08:53:11;11.10;;;10.60;;
6386;SDS011;3226;42.162;24.756;2023-06-22T08:55:39;9.33;;;8.93;;
6386;SDS011;3226;42.162;24.756;2023-06-22T08:58:07;7.77;;;7.47;;
6386;SDS011;3226;42.162;24.756;2023-06-22T09:00:35;7.13;;;6.83;;
6386;SDS011;3226;42.162;24.756;2023-06-22T09:03:03;7.13;;;6.83;;
6386;SDS011;3226;42.162;24.756;2023-06-22T09:05:32;7.00;;;6.70;;
6386;SDS011;3226;42.162;24.756;2023-06-22T09:08:00;7.50;;;7.20;;
6386;SDS011;3226;42.162;24.756;2023-06-22T09:10:29;7.57;;;7.17;;
6386;SDS011;3226;42.162;24.756;2023-06-22T09:12:58;6.80;;;6.50;;
6386;SDS011;3226;42.162;24.756;2023-06-22T09:15:26;7.00;;;6.70;;
6386;SDS011;3226;42.162;24.756;2023-06-22T09:17:54;7.93;;;7.63;;
6386;SDS011;3226;42.162;24.756;2023-06-22T09:20:23;10.20;;;9.77;;
6386;SDS011;3226;42.162;24.756;2023-06-22T09:22:52;9.10;;;8.70;;
6386;SDS011;3226;42.162;24.756;2023-06-22T09:25:20;9.47;;;9.07;;
6386;SDS011;3226;42.162;24.756;2023-06-22T09:27:49;9.33;;;8.93;;
6386;SDS011;3226;42.162;24.756;2023-06-22T09:30:17;7.70;;;7.40;;
6386;SDS011;3226;42.162;24.756;2023-06-22T09:32:46;9.53;;;9.13;;
6386;SDS011;3226;42.162;24.756;2023-06-22T09:35:14;8.87;;;8.47;;
6386;SDS011;3226;42.162;24.756;2023-06-22T09:37:42;8.30;;;7.93;;
6386;SDS011;3226;42.162;24.756;2023-06-22T09:40:10;9.00;;;8.60;;
6386;SDS011;3226;42.162;24.756;2023-06-22T09:42:41;9.97;;;9.53;;
6386;SDS011;3226;42.162;24.756;2023-06-22T09:45:10;8.70;;;8.30;;
6386;SDS011;3226;42.162;24.756;2023-06-22T09:47:38;7.07;;;6.77;;
6386;SDS011;3226;42.162;24.756;2023-06-22T09:50:07;8.00;;;7.70;;
6386;SDS011;3226;42.162;24.756;2023-06-22T09:52:35;7.37;;;7.07;;
6386;SDS011;3226;42.162;24.756;2023-06-22T09:55:07;7.70;;;7.40;;
6386;SDS011;3226;42.162;24.756;2023-06-22T09:57:35;7.93;;;7.63;;
6386;SDS011;3226;42.162;24.756;2023-06-22T10:00:03;8.17;;;7.83;;
6386;SDS011;3226;42.162;24.756;2023-06-22T10:02:36;8.53;;;8.03;;
6386;SDS011;3226;42.162;24.756;2023-06-22T10:05:04;8.60;;;8.20;;
6386;SDS011;3226;42.162;24.756;2023-06-22T10:07:34;7.60;;;7.30;;
6386;SDS011;3226;42.162;24.756;2023-06-22T10:10:06;6.70;;;6.40;;
6386;SDS011;3226;42.162;24.756;2023-06-22T10:12:35;7.13;;;6.83;;
6386;SDS011;3226;42.162;24.756;2023-06-22T10:15:03;7.50;;;7.20;;
6386;SDS011;3226;42.162;24.756;2023-06-22T10:17:32;7.97;;;7.63;;
6386;SDS011;3226;42.162;24.756;2023-06-22T10:20:02;8.60;;;8.20;;
6386;SDS011;3226;42.162;24.756;2023-06-22T10:22:38;8.57;;;8.17;;
6386;SDS011;3226;42.162;24.756;2023-06-22T10:25:07;7.43;;;7.13;;
6386;SDS011;3226;42.162;24.756;2023-06-22T10:27:35;8.40;;;8.03;;
6386;SDS011;3226;42.162;24.756;2023-06-22T10:30:06;7.50;;;7.20;;
6386;SDS011;3226;42.162;24.756;2023-06-22T10:32:35;7.37;;;7.07;;
6386;SDS011;3226;42.162;24.756;2023-06-22T10:35:06;7.83;;;7.53;;
6386;SDS011;3226;42.162;24.756;2023-06-22T10:37:37;8.87;;;8.47;;
6386;SDS011;3226;42.162;24.756;2023-06-22T10:40:05;8.80;;;8.40;;
6386;SDS011;3226;42.162;24.756;2023-06-22T10:42:34;8.53;;;8.13;;
6386;SDS011;3226;42.162;24.756;2023-06-22T10:45:02;8.40;;;8.00;;
6386;SDS011;3226;42.162;24.756;2023-06-22T10:47:31;7.43;;;7.13;;
6386;SDS011;3226;42.162;24.756;2023-06-22T10:49:59;7.33;;;6.97;;
6386;SDS011;3226;42.162;24.756;2023-06-22T10:52:28;7.03;;;6.73;;
6386;SDS011;3226;42.162;24.756;2023-06-22T10:54:56;7.07;;;6.77;;
6386;SDS011;3226;42.162;24.756;2023-06-22T10:57:25;7.77;;;7.47;;
6386;SDS011;3226;42.162;24.756;2023-06-22T10:59:53;9.13;;;8.73;;
6386;SDS011;3226;42.162;24.756;2023-06-22T11:02:21;7.93;;;7.63;;
6386;SDS011;3226;42.162;24.756;2023-06-22T11:04:49;8.60;;;8.20;;
6386;SDS011;3226;42.162;24.756;2023-06-22T11:07:17;7.80;;;7.40;;
6386;SDS011;3226;42.162;24.756;2023-06-22T11:09:47;8.83;;;8.43;;
6386;SDS011;3226;42.162;24.756;2023-06-22T11:12:15;7.80;;;7.50;;
6386;SDS011;3226;42.162;24.756;2023-06-22T11:14:43;7.80;;;7.50;;
6386;SDS011;3226;42.162;24.756;2023-06-22T11:17:11;7.27;;;6.97;;
6386;SDS011;3226;42.162;24.756;2023-06-22T11:19:39;8.00;;;7.70;;
6386;SDS011;3226;42.162;24.756;2023-06-22T11:22:08;7.70;;;7.40;;
6386;SDS011;3226;42.162;24.756;2023-06-22T11:24:36;8.37;;;7.97;;
6386;SDS011;3226;42.162;24.756;2023-06-22T11:27:05;7.73;;;7.43;;
6386;SDS011;3226;42.162;24.756;2023-06-22T11:29:34;8.37;;;7.97;;
6386;SDS011;3226;42.162;24.756;2023-06-22T11:32:04;8.10;;;7.70;;
6386;SDS011;3226;42.162;24.756;2023-06-22T11:34:35;8.63;;;8.23;;
6386;SDS011;3226;42.162;24.756;2023-06-22T11:37:03;8.00;;;7.70;;
6386;SDS011;3226;42.162;24.756;2023-06-22T11:39:31;7.97;;;7.67;;
6386;SDS011;3226;42.162;24.756;2023-06-22T11:42:09;7.60;;;7.30;;
6386;SDS011;3226;42.162;24.756;2023-06-22T11:44:38;7.50;;;7.20;;
6386;SDS011;3226;42.162;24.756;2023-06-22T11:47:05;7.53;;;7.23;;
6386;SDS011;3226;42.162;24.756;2023-06-22T11:49:34;8.00;;;7.67;;
6386;SDS011;3226;42.162;24.756;2023-06-22T11:52:02;7.00;;;6.70;;
6386;SDS011;3226;42.162;24.756;2023-06-22T11:54:30;7.63;;;7.33;;
6386;SDS011;3226;42.162;24.756;2023-06-22T11:56:58;7.20;;;6.90;;
6386;SDS011;3226;42.162;24.756;2023-06-22T11:59:27;6.87;;;6.57;;
6386;SDS011;3226;42.162;24.756;2023-06-22T12:01:55;6.57;;;6.27;;
6386;SDS011;3226;42.162;24.756;2023-06-22T12:04:24;6.43;;;6.13;;
6386;SDS011;3226;42.162;24.756;2023-06-22T12:06:52;6.50;;;6.20;;
6386;SDS011;3226;42.162;24.756;2023-06-22T12:09:20;6.43;;;6.13;;
6386;SDS011;3226;42.162;24.756;2023-06-22T12:11:48;6.70;;;6.40;;
6386;SDS011;3226;42.162;24.756;2023-06-22T12:14:16;6.93;;;6.63;;
6386;SDS011;3226;42.162;24.756;2023-06-22T12:16:45;7.60;;;7.30;;
6386;SDS011;3226;42.162;24.756;2023-06-22T12:19:13;7.40;;;7.10;;
6386;SDS011;3226;42.162;24.756;2023-06-22T12:21:41;7.57;;;7.27;;
6386;SDS011;3226;42.162;24.756;2023-06-22T12:24:11;8.43;;;8.03;;
6386;SDS011;3226;42.162;24.756;2023-06-22T12:26:39;6.77;;;6.47;;
6386;SDS011;3226;42.162;24.756;2023-06-22T12:29:08;7.43;;;7.13;;
6386;SDS011;3226;42.162;24.756;2023-06-22T12:31:36;7.90;;;7.57;;
6386;SDS011;3226;42.162;24.756;2023-06-22T12:34:06;8.17;;;7.77;;
6386;SDS011;3226;42.162;24.756;2023-06-22T12:36:34;6.93;;;6.63;;
6386;SDS011;3226;42.162;24.756;2023-06-22T12:39:02;7.27;;;6.97;;
6386;SDS011;3226;42.162;24.756;2023-06-22T12:41:30;7.10;;;6.80;;
6386;SDS011;3226;42.162;24.756;2023-06-22T12:43:58;6.73;;;6.43;;
6386;SDS011;3226;42.162;24.756;2023-06-22T12:46:26;7.07;;;6.77;;
6386;SDS011;3226;42.162;24.756;2023-06-22T12:48:55;7.40;;;7.00;;
6386;SDS011;3226;42.162;24.756;2023-06-22T12:51:24;6.83;;;6.53;;
6386;SDS011;3226;42.162;24.756;2023-06-22T12:53:52;7.50;;;7.20;;
6386;SDS011;3226;42.162;24.756;2023-06-22T12:56:20;6.33;;;6.07;;
6386;SDS011;3226;42.162;24.756;2023-06-22T12:58:48;7.10;;;6.80;;
6386;SDS011;3226;42.162;24.756;2023-06-22T13:01:16;8.07;;;7.70;;
6386;SDS011;3226;42.162;24.756;2023-06-22T13:03:44;6.50;;;6.20;;
6386;SDS011;3226;42.162;24.756;2023-06-22T13:06:12;7.47;;;7.17;;
6386;SDS011;3226;42.162;24.756;2023-06-22T13:08:42;7.53;;;7.13;;
6386;SDS011;3226;42.162;24.756;2023-06-22T13:11:30;6.73;;;6.43;;
6386;SDS011;3226;42.162;24.756;2023-06-22T13:13:58;7.20;;;6.90;;
6386;SDS011;3226;42.162;24.756;2023-06-22T13:16:26;7.90;;;7.60;;
6386;SDS011;3226;42.162;24.756;2023-06-22T13:18:54;7.10;;;6.80;;
6386;SDS011;3226;42.162;24.756;2023-06-22T13:21:22;8.13;;;7.73;;
6386;SDS011;3226;42.162;24.756;2023-06-22T13:23:51;6.97;;;6.67;;
6386;SDS011;3226;42.162;24.756;2023-06-22T13:26:20;7.50;;;7.20;;
6386;SDS011;3226;42.162;24.756;2023-06-22T13:28:48;6.83;;;6.53;;
6386;SDS011;3226;42.162;24.756;2023-06-22T13:31:16;6.90;;;6.60;;
6386;SDS011;3226;42.162;24.756;2023-06-22T13:33:44;6.50;;;6.20;;
6386;SDS011;3226;42.162;24.756;2023-06-22T13:36:14;7.53;;;7.23;;
6386;SDS011;3226;42.162;24.756;2023-06-22T13:38:43;7.77;;;7.47;;
6386;SDS011;3226;42.162;24.756;2023-06-22T13:41:13;7.67;;;7.37;;
6386;SDS011;3226;42.162;24.756;2023-06-22T13:43:41;7.40;;;7.10;;
6386;SDS011;3226;42.162;24.756;2023-06-22T13:46:09;7.30;;;7.00;;
6386;SDS011;3226;42.162;24.756;2023-06-22T13:48:37;7.30;;;7.00;;
6386;SDS011;3226;42.162;24.756;2023-06-22T13:51:05;7.33;;;7.03;;
6386;SDS011;3226;42.162;24.756;2023-06-22T13:53:33;7.60;;;7.30;;
6386;SDS011;3226;42.162;24.756;2023-06-22T13:56:01;7.23;;;6.93;;
6386;SDS011;3226;42.162;24.756;2023-06-22T13:58:30;7.13;;;6.83;;
6386;SDS011;3226;42.162;24.756;2023-06-22T14:00:58;7.00;;;6.70;;
6386;SDS011;3226;42.162;24.756;2023-06-22T14:03:26;7.63;;;7.33;;
6386;SDS011;3226;42.162;24.756;2023-06-22T14:05:54;7.20;;;6.90;;
6386;SDS011;3226;42.162;24.756;2023-06-22T14:08:22;6.93;;;6.63;;
6386;SDS011;3226;42.162;24.756;2023-06-22T14:11:07;7.77;;;7.47;;
6386;SDS011;3226;42.162;24.756;2023-06-22T14:13:36;8.37;;;7.97;;
6386;SDS011;3226;42.162;24.756;2023-06-22T14:16:04;9.00;;;8.60;;
6386;SDS011;3226;42.162;24.756;2023-06-22T14:18:32;8.30;;;7.90;;
6386;SDS011;3226;42.162;24.756;2023-06-22T14:21:00;7.40;;;7.10;;
6386;SDS011;3226;42.162;24.756;2023-06-22T14:23:28;7.17;;;6.87;;
6386;SDS011;3226;42.162;24.756;2023-06-22T14:25:56;6.90;;;6.60;;
6386;SDS011;3226;42.162;24.756;2023-06-22T14:28:24;7.30;;;7.00;;
6386;SDS011;3226;42.162;24.756;2023-06-22T14:30:53;8.20;;;7.87;;
6386;SDS011;3226;42.162;24.756;2023-06-22T14:33:22;7.57;;;7.27;;
6386;SDS011;3226;42.162;24.756;2023-06-22T14:35:50;10.70;;;10.20;;
6386;SDS011;3226;42.162;24.756;2023-06-22T14:38:18;10.90;;;10.40;;
6386;SDS011;3226;42.162;24.756;2023-06-22T14:40:47;9.37;;;8.97;;
6386;SDS011;3226;42.162;24.756;2023-06-22T14:43:35;7.37;;;7.07;;
6386;SDS011;3226;42.162;24.756;2023-06-22T14:46:04;7.47;;;7.17;;
6386;SDS011;3226;42.162;24.756;2023-06-22T14:48:33;9.40;;;9.00;;
6386;SDS011;3226;42.162;24.756;2023-06-22T14:51:01;9.37;;;8.97;;
6386;SDS011;3226;42.162;24.756;2023-06-22T14:53:28;9.60;;;9.10;;
6386;SDS011;3226;42.162;24.756;2023-06-22T14:55:56;10.00;;;9.50;;
6386;SDS011;3226;42.162;24.756;2023-06-22T14:58:27;7.40;;;7.10;;
6386;SDS011;3226;42.162;24.756;2023-06-22T15:00:56;7.73;;;7.43;;
6386;SDS011;3226;42.162;24.756;2023-06-22T15:03:25;10.60;;;10.10;;
6386;SDS011;3226;42.162;24.756;2023-06-22T15:05:55;9.70;;;9.00;;
6386;SDS011;3226;42.162;24.756;2023-06-22T15:08:23;17.03;;;16.23;;
6386;SDS011;3226;42.162;24.756;2023-06-22T15:10:52;9.10;;;8.70;;